createdAt,value
2023-01-03T00:01:16.167Z,7.43
2023-01-03T00:03:44.156Z,9.23
2023-01-03T00:06:16.902Z,9.02
2023-01-03T00:08:46.589Z,10.75
2023-01-03T00:11:14.722Z,9.40
2023-01-03T00:13:41.767Z,12.70
2023-01-03T00:16:16.647Z,10.23
2023-01-03T00:18:44.553Z,7.82
2023-01-03T00:21:12.457Z,10.23
2023-01-03T00:23:40.383Z,9.27
2023-01-03T00:26:13.330Z,9.45
2023-01-03T00:28:41.215Z,9.07
2023-01-03T00:31:09.290Z,9.30
2023-01-03T00:33:37.957Z,7.88
2023-01-03T00:36:06.531Z,8.27
2023-01-03T00:38:34.511Z,8.25
2023-01-03T00:41:06.435Z,8.60
2023-01-03T00:43:35.631Z,8.68
2023-01-03T00:46:03.695Z,7.05
2023-01-03T00:48:31.799Z,8.18
2023-01-03T00:51:00.027Z,8.43
2023-01-03T00:53:27.859Z,9.02
2023-01-03T00:55:55.852Z,8.32
2023-01-03T00:58:23.741Z,7.63
2023-01-03T01:00:53.340Z,7.88
2023-01-03T01:03:21.452Z,8.25
2023-01-03T01:05:49.512Z,9.30
2023-01-03T01:08:17.551Z,9.52
2023-01-03T01:11:01.775Z,8.27
2023-01-03T01:13:30.105Z,7.70
2023-01-03T01:16:03.750Z,8.20
2023-01-03T01:18:31.849Z,9.35
2023-01-03T01:20:59.756Z,8.27
2023-01-03T01:23:27.631Z,8.30
2023-01-03T01:25:55.477Z,8.15
2023-01-03T01:28:23.660Z,7.68
2023-01-03T01:30:51.528Z,8.18
2023-01-03T01:33:20.809Z,8.25
2023-01-03T01:35:48.671Z,7.88
2023-01-03T01:38:16.515Z,6.35
2023-01-03T01:40:44.388Z,9.10
2023-01-03T01:43:32.976Z,7.60
2023-01-03T01:46:01.527Z,9.77
2023-01-03T01:48:30.723Z,10.43
2023-01-03T01:50:58.581Z,8.20
2023-01-03T01:53:28.548Z,7.82
2023-01-03T01:55:57.773Z,7.20
2023-01-03T01:58:28.196Z,8.60
2023-01-03T02:00:56.120Z,6.68
2023-01-03T02:03:24.033Z,7.03
2023-01-03T02:05:54.651Z,7.20
2023-01-03T02:08:22.692Z,6.80
2023-01-03T02:10:58.457Z,7.07
2023-01-03T02:13:30.213Z,7.78
2023-01-03T02:16:05.250Z,7.63
2023-01-03T02:18:39.310Z,7.32
2023-01-03T02:21:34.847Z,7.28
2023-01-03T02:24:25.532Z,7.97
2023-01-03T02:26:56.602Z,6.20
2023-01-03T02:29:51.281Z,7.18
2023-01-03T02:32:21.952Z,8.20
2023-01-03T02:34:51.531Z,6.75
2023-01-03T02:37:23.040Z,7.35
2023-01-03T02:39:54.524Z,6.70
2023-01-03T02:42:42.760Z,5.63
2023-01-03T02:45:13.444Z,7.80
2023-01-03T02:47:45.636Z,7.95
2023-01-03T02:50:13.892Z,5.28
2023-01-03T02:52:41.942Z,7.78
2023-01-03T02:55:12.404Z,7.32
2023-01-03T02:57:41.240Z,6.00
2023-01-03T03:00:10.885Z,6.57
2023-01-03T03:02:39.084Z,7.30
2023-01-03T03:05:11.220Z,6.53
2023-01-03T03:07:40.839Z,6.22
2023-01-03T03:10:27.837Z,6.68
2023-01-03T03:13:16.832Z,6.88
2023-01-03T03:15:50.834Z,5.85
2023-01-03T03:18:20.431Z,6.68
2023-01-03T03:21:07.271Z,9.43
2023-01-03T03:23:54.124Z,6.65
2023-01-03T03:26:23.325Z,6.45
2023-01-03T03:28:53.415Z,5.78
2023-01-03T03:31:23.156Z,5.80
2023-01-03T03:33:54.081Z,6.45
2023-01-03T03:36:26.291Z,6.90
2023-01-03T03:38:54.132Z,5.38
2023-01-03T03:41:41.609Z,5.53
2023-01-03T03:44:32.072Z,5.60
2023-01-03T03:47:04.203Z,4.80
2023-01-03T03:49:38.697Z,9.60
2023-01-03T03:52:09.336Z,8.32
2023-01-03T03:54:38.421Z,5.28
2023-01-03T03:57:08.785Z,5.85
2023-01-03T03:59:36.615Z,6.45
2023-01-03T04:02:06.451Z,6.50
2023-01-03T04:04:36.116Z,5.80
2023-01-03T04:07:04.134Z,5.43
2023-01-03T04:09:33.817Z,6.03
2023-01-03T04:12:01.724Z,5.72
2023-01-03T04:14:29.595Z,5.60
2023-01-03T04:16:57.557Z,6.93
2023-01-03T04:19:25.478Z,6.13
2023-01-03T04:21:53.323Z,6.13
2023-01-03T04:24:22.246Z,6.35
2023-01-03T04:26:51.700Z,6.60
2023-01-03T04:29:19.637Z,6.13
2023-01-03T04:31:47.607Z,6.43
2023-01-03T04:34:15.468Z,5.85
2023-01-03T04:36:43.364Z,6.32
2023-01-03T04:39:11.265Z,5.38
2023-01-03T04:41:39.169Z,6.82
2023-01-03T04:44:07.525Z,5.68
2023-01-03T04:46:36.285Z,7.88
2023-01-03T04:49:04.554Z,6.47
2023-01-03T04:51:32.620Z,5.43
2023-01-03T04:54:00.502Z,8.88
2023-01-03T04:56:28.888Z,6.22
2023-01-03T04:58:56.928Z,5.57
2023-01-03T05:01:27.397Z,6.65
2023-01-03T05:03:58.224Z,6.10
2023-01-03T05:06:26.172Z,6.07
2023-01-03T05:08:54.025Z,5.20
2023-01-03T05:11:21.955Z,6.10
2023-01-03T05:13:49.779Z,4.85
2023-01-03T05:16:17.757Z,9.25
2023-01-03T05:18:48.895Z,5.40
2023-01-03T05:21:33.002Z,4.53
2023-01-03T05:24:18.580Z,6.18
2023-01-03T05:26:46.685Z,4.90
2023-01-03T05:29:14.826Z,5.20
2023-01-03T05:31:42.785Z,5.20
2023-01-03T05:34:12.195Z,6.35
2023-01-03T05:36:40.067Z,5.78
2023-01-03T05:39:07.916Z,4.95
2023-01-03T05:41:53.728Z,6.55
2023-01-03T05:44:21.719Z,5.75
2023-01-03T05:46:49.634Z,5.82
2023-01-03T05:49:18.844Z,4.68
2023-01-03T05:51:46.812Z,6.57
2023-01-03T05:54:15.288Z,4.50
2023-01-03T05:56:43.653Z,5.50
2023-01-03T05:59:11.522Z,4.68
2023-01-03T06:01:39.575Z,4.35
2023-01-03T06:04:07.927Z,5.18
2023-01-03T06:06:37.228Z,6.72
2023-01-03T06:09:05.256Z,6.15
2023-01-03T06:11:33.245Z,8.57
2023-01-03T06:14:01.125Z,5.72
2023-01-03T06:16:46.747Z,10.85
2023-01-03T06:19:14.960Z,3.83
2023-01-03T06:21:44.264Z,3.88
2023-01-03T06:24:12.280Z,3.65
2023-01-03T06:26:40.191Z,5.10
2023-01-03T06:29:08.223Z,7.97
2023-01-03T06:31:36.079Z,4.00
2023-01-03T06:34:04.229Z,4.80
2023-01-03T06:36:34.610Z,4.32
2023-01-03T06:39:03.822Z,4.60
2023-01-03T06:41:31.796Z,4.32
2023-01-03T06:43:59.655Z,24.88
2023-01-03T06:46:45.212Z,20.88
2023-01-03T06:49:33.259Z,29.67
2023-01-03T06:52:18.420Z,19.30
2023-01-03T06:54:47.684Z,21.77
2023-01-03T06:57:26.329Z,28.30
2023-01-03T06:59:55.408Z,30.52
2023-01-03T07:02:23.525Z,28.95
2023-01-03T07:04:51.655Z,28.60
2023-01-03T07:07:19.701Z,23.48
2023-01-03T07:09:48.891Z,26.23
2023-01-03T07:12:36.885Z,28.30
2023-01-03T07:15:05.444Z,28.42
2023-01-03T07:17:33.308Z,27.83
2023-01-03T07:20:01.213Z,22.05
2023-01-03T07:22:29.105Z,27.23
2023-01-03T07:24:58.290Z,21.05
2023-01-03T07:27:26.184Z,18.45
2023-01-03T07:29:54.028Z,21.23
2023-01-03T07:32:21.890Z,19.50
2023-01-03T07:34:49.776Z,20.98
2023-01-03T07:37:18.981Z,21.33
2023-01-03T07:39:46.823Z,18.27
2023-01-03T07:42:33.503Z,18.27
2023-01-03T07:45:01.467Z,15.65
2023-01-03T07:47:29.348Z,18.52
2023-01-03T07:49:57.222Z,16.00
2023-01-03T07:52:25.110Z,16.70
2023-01-03T07:54:52.949Z,14.10
2023-01-03T07:57:22.153Z,17.85
2023-01-03T07:59:50.025Z,16.52
2023-01-03T08:02:19.346Z,16.45
2023-01-03T08:04:47.454Z,16.02
2023-01-03T08:07:15.339Z,12.50
2023-01-03T08:10:00.993Z,17.80
2023-01-03T08:12:47.904Z,15.10
2023-01-03T08:15:15.865Z,11.50
2023-01-03T08:17:43.729Z,14.57
2023-01-03T08:20:11.900Z,14.05
2023-01-03T08:22:40.329Z,13.63
2023-01-03T08:25:09.021Z,12.60
2023-01-03T08:27:38.236Z,9.90
2023-01-03T08:30:07.399Z,8.57
2023-01-03T08:32:35.281Z,9.07
2023-01-03T08:35:03.218Z,26.88
2023-01-03T08:37:31.060Z,38.88
2023-01-03T08:40:00.693Z,32.83
2023-01-03T08:42:28.518Z,42.20
2023-01-03T08:44:59.288Z,30.77
2023-01-03T08:47:27.196Z,37.33
2023-01-03T08:49:55.408Z,44.53
2023-01-03T08:52:23.235Z,34.65
2023-01-03T08:54:51.171Z,32.47
2023-01-03T08:57:19.012Z,34.28
2023-01-03T08:59:46.960Z,38.38
2023-01-03T09:02:16.525Z,33.45
2023-01-03T09:04:44.555Z,36.85
2023-01-03T09:07:12.523Z,44.42
2023-01-03T09:09:40.397Z,36.15
2023-01-03T09:12:08.353Z,36.40
2023-01-03T09:14:36.284Z,34.10
2023-01-03T09:17:04.143Z,28.98
2023-01-03T09:19:33.310Z,21.75
2023-01-03T09:22:01.194Z,27.52
2023-01-03T09:24:29.053Z,29.65
2023-01-03T09:26:56.890Z,27.33
2023-01-03T09:29:24.727Z,26.38
2023-01-03T09:31:52.677Z,26.77
2023-01-03T09:34:20.630Z,30.25
2023-01-03T09:36:49.848Z,31.17
2023-01-03T09:39:17.741Z,29.65
2023-01-03T09:41:45.600Z,27.67
2023-01-03T09:44:15.291Z,24.85
2023-01-03T09:46:43.204Z,20.88
2023-01-03T09:49:11.776Z,20.27
2023-01-03T09:51:58.486Z,28.80
2023-01-03T09:54:46.045Z,24.50
2023-01-03T09:57:34.508Z,22.65
2023-01-03T10:00:19.905Z,21.90
2023-01-03T10:03:17.384Z,24.55
2023-01-03T10:05:54.518Z,18.90
2023-01-03T10:08:28.917Z,25.45
2023-01-03T10:11:01.944Z,16.00
2023-01-03T10:13:35.489Z,18.92
2023-01-03T10:16:07.898Z,22.88
2023-01-03T10:18:55.212Z,18.10
2023-01-03T10:21:25.339Z,19.02
2023-01-03T10:23:53.927Z,16.10
2023-01-03T10:26:29.201Z,17.00
2023-01-03T10:29:00.343Z,20.77
2023-01-03T10:31:35.499Z,20.35
2023-01-03T10:34:03.415Z,16.90
2023-01-03T10:36:31.297Z,15.25
2023-01-03T10:39:06.116Z,17.50
2023-01-03T10:41:40.738Z,15.02
2023-01-03T10:44:08.587Z,15.52
2023-01-03T10:46:36.938Z,14.35
2023-01-03T10:49:27.264Z,14.55
2023-01-03T10:51:58.045Z,13.82
2023-01-03T10:54:29.256Z,13.20
2023-01-03T10:56:58.618Z,11.93
2023-01-03T10:59:27.273Z,12.32
2023-01-03T11:02:00.156Z,14.63
2023-01-03T11:04:28.276Z,15.82
2023-01-03T11:07:04.940Z,11.63
2023-01-03T11:09:37.032Z,13.00
2023-01-03T11:12:11.354Z,11.73
2023-01-03T11:14:39.207Z,12.50
2023-01-03T11:17:07.083Z,15.10
2023-01-03T11:19:35.294Z,13.45
2023-01-03T11:22:06.439Z,11.98
2023-01-03T11:24:52.986Z,10.23
2023-01-03T11:27:30.377Z,13.05
2023-01-03T11:30:19.207Z,13.43
2023-01-03T11:32:54.079Z,10.85
2023-01-03T11:35:35.790Z,10.50
2023-01-03T11:38:10.359Z,13.52
2023-01-03T11:40:44.352Z,10.85
2023-01-03T11:43:24.924Z,9.38
2023-01-03T11:46:11.100Z,9.10
2023-01-03T11:48:52.420Z,7.80
2023-01-03T11:51:24.248Z,9.30
2023-01-03T11:53:57.575Z,9.98
2023-01-03T11:56:28.837Z,9.50
2023-01-03T11:59:29.483Z,8.80
2023-01-03T12:02:30.201Z,7.03
2023-01-03T12:05:06.023Z,7.18
2023-01-03T12:07:48.837Z,7.40
2023-01-03T12:10:18.109Z,8.00
2023-01-03T12:13:08.924Z,7.55
2023-01-03T12:15:42.976Z,5.85
2023-01-03T12:18:16.321Z,7.28
2023-01-03T12:20:45.996Z,9.43
2023-01-03T12:23:16.771Z,7.95
2023-01-03T12:25:45.988Z,6.43
2023-01-03T12:28:16.283Z,9.43
2023-01-03T12:30:48.345Z,6.95
2023-01-03T12:33:25.206Z,8.02
2023-01-03T12:35:57.654Z,7.72
2023-01-03T12:38:26.764Z,6.43
2023-01-03T12:40:56.445Z,5.63
2023-01-03T12:43:28.909Z,5.95
2023-01-03T12:46:03.483Z,6.32
2023-01-03T12:48:40.069Z,7.30
2023-01-03T12:51:07.953Z,6.05
2023-01-03T12:53:37.903Z,6.80
2023-01-03T12:56:19.108Z,6.22
2023-01-03T12:58:52.701Z,6.07
2023-01-03T13:01:24.352Z,7.88
2023-01-03T13:03:54.625Z,6.30
2023-01-03T13:06:24.709Z,7.97
2023-01-03T13:08:54.489Z,7.28
2023-01-03T13:11:23.616Z,7.47
2023-01-03T13:13:54.316Z,7.13
2023-01-03T13:16:44.479Z,5.50
2023-01-03T13:19:41.403Z,4.97
2023-01-03T13:22:21.739Z,8.02
2023-01-03T13:24:51.223Z,4.88
2023-01-03T13:27:23.549Z,6.00
2023-01-03T13:29:56.192Z,5.35
2023-01-03T13:32:29.492Z,5.95
2023-01-03T13:35:34.493Z,7.53
2023-01-03T13:38:24.653Z,5.32
2023-01-03T13:41:17.179Z,4.32
2023-01-03T13:43:42.195Z,5.97
2023-01-03T13:46:21.144Z,4.55
2023-01-03T13:48:59.901Z,3.95
2023-01-03T13:51:47.259Z,6.75
2023-01-03T13:54:35.061Z,4.15
2023-01-03T13:57:05.423Z,3.63
2023-01-03T13:59:35.800Z,5.05
2023-01-03T14:02:22.140Z,6.28
2023-01-03T14:05:01.987Z,5.22
2023-01-03T14:08:01.133Z,6.07
2023-01-03T14:10:34.050Z,5.05
2023-01-03T14:13:09.829Z,5.15
2023-01-03T14:15:37.792Z,4.43
2023-01-03T14:18:12.892Z,3.88
2023-01-03T14:20:44.612Z,4.53
2023-01-03T14:23:48.923Z,6.15
2023-01-03T14:26:06.693Z,4.18
2023-01-03T14:28:34.824Z,6.20
2023-01-03T14:31:05.557Z,4.97
2023-01-03T14:33:36.702Z,6.00
2023-01-03T14:36:06.933Z,6.50
2023-01-03T14:38:35.489Z,5.32
2023-01-03T14:41:03.525Z,4.13
2023-01-03T14:47:20.884Z,4.40
2023-01-03T14:49:49.917Z,3.75
2023-01-03T14:52:22.225Z,5.57
2023-01-03T14:54:51.793Z,4.97
2023-01-03T14:57:20.751Z,4.38
2023-01-03T14:59:48.909Z,4.57
2023-01-03T15:02:17.994Z,3.35
2023-01-03T15:04:50.062Z,4.82
2023-01-03T15:07:32.064Z,4.40
2023-01-03T15:10:07.935Z,4.72
2023-01-03T15:12:37.186Z,3.78
2023-01-03T15:15:11.241Z,4.28
2023-01-03T15:17:39.475Z,4.30
2023-01-03T15:20:08.367Z,4.82
2023-01-03T15:22:40.325Z,4.82
2023-01-03T15:25:12.282Z,4.43
2023-01-03T15:27:43.049Z,6.18
2023-01-03T15:30:20.943Z,4.00
2023-01-03T15:32:57.293Z,3.58
2023-01-03T15:35:31.754Z,2.88
2023-01-03T15:38:01.952Z,4.93
2023-01-03T15:40:30.868Z,4.68
2023-01-03T15:43:19.854Z,4.28
2023-01-03T15:45:51.665Z,4.85
2023-01-03T15:48:21.236Z,5.30
2023-01-03T15:50:49.711Z,4.13
2023-01-03T15:53:24.391Z,3.97
2023-01-03T15:55:53.425Z,3.25
2023-01-03T15:58:21.327Z,4.35
2023-01-03T16:00:49.751Z,3.97
2023-01-03T16:03:18.289Z,6.78
2023-01-03T16:05:46.311Z,6.60
2023-01-03T16:08:23.058Z,5.47
2023-01-03T16:10:51.272Z,3.63
2023-01-03T16:13:19.606Z,4.07
2023-01-03T16:15:47.624Z,10.32
2023-01-03T16:18:15.696Z,6.45
2023-01-03T16:20:43.587Z,3.92
2023-01-03T16:23:16.485Z,3.75
2023-01-03T16:25:45.725Z,5.38
2023-01-03T16:28:13.651Z,6.85
2023-01-03T16:30:41.616Z,3.88
2023-01-03T16:33:12.355Z,3.75
2023-01-03T16:35:40.291Z,3.67
2023-01-03T16:38:13.613Z,4.45
2023-01-03T16:40:41.531Z,6.03
2023-01-03T16:43:10.988Z,4.22
2023-01-03T16:45:45.251Z,4.93
2023-01-03T16:48:17.243Z,6.95
2023-01-03T16:50:45.308Z,7.38
2023-01-03T16:53:18.998Z,4.72
2023-01-03T16:55:50.376Z,18.33
2023-01-03T16:58:20.598Z,7.45
2023-01-03T17:00:48.520Z,5.13
2023-01-03T17:03:16.489Z,5.70
2023-01-03T17:05:44.550Z,6.63
2023-01-03T17:08:16.788Z,7.72
2023-01-03T17:10:46.748Z,3.78
2023-01-03T17:13:31.655Z,5.60
2023-01-03T17:15:59.917Z,4.38
2023-01-03T17:18:28.867Z,4.65
2023-01-03T17:20:58.855Z,7.80
2023-01-03T17:23:27.562Z,2.97
2023-01-03T17:25:55.557Z,5.88
2023-01-03T17:28:24.837Z,6.03
2023-01-03T17:30:56.513Z,4.45
2023-01-03T17:33:30.240Z,3.90
2023-01-03T17:36:01.607Z,7.80
2023-01-03T17:38:29.659Z,5.15
2023-01-03T17:40:57.596Z,3.17
2023-01-03T17:43:27.601Z,7.53
2023-01-03T17:46:20.614Z,10.40
2023-01-03T17:49:08.134Z,5.00
2023-01-03T17:51:36.034Z,9.10
2023-01-03T17:54:04.575Z,12.82
2023-01-03T17:56:32.513Z,11.70
2023-01-03T17:59:02.512Z,5.13
2023-01-03T18:01:30.821Z,6.55
2023-01-03T18:03:59.249Z,6.57
2023-01-03T18:06:27.333Z,4.32
2023-01-03T18:08:56.482Z,5.30
2023-01-03T18:11:26.254Z,5.10
2023-01-03T18:13:54.206Z,8.00
2023-01-03T18:16:23.817Z,2.78
2023-01-03T18:18:51.875Z,7.72
2023-01-03T18:21:21.565Z,5.63
2023-01-03T18:23:53.091Z,11.90
2023-01-03T18:26:21.050Z,5.05
2023-01-03T18:28:48.986Z,6.38
2023-01-03T18:31:17.961Z,5.10
2023-01-03T18:33:47.294Z,7.30
2023-01-03T18:36:25.775Z,4.03
2023-01-03T18:38:56.950Z,5.35
2023-01-03T18:41:26.819Z,4.70
2023-01-03T18:43:54.661Z,3.38
2023-01-03T18:46:22.636Z,7.05
2023-01-03T18:48:52.353Z,3.55
2023-01-03T18:51:21.249Z,5.32
2023-01-03T18:53:51.610Z,4.10
2023-01-03T18:56:26.247Z,5.25
2023-01-03T18:59:01.524Z,3.55
2023-01-03T19:01:30.068Z,7.40
2023-01-03T19:03:59.664Z,4.13
2023-01-03T19:06:30.597Z,6.28
2023-01-03T19:09:03.101Z,4.60
2023-01-03T19:11:32.342Z,2.67
2023-01-03T19:14:02.422Z,3.20
2023-01-03T19:16:31.706Z,4.40
2023-01-03T19:19:01.357Z,3.97
2023-01-03T19:21:31.437Z,2.85
2023-01-03T19:24:01.917Z,3.25
2023-01-03T19:26:31.389Z,4.63
2023-01-03T19:29:01.269Z,2.83
2023-01-03T19:31:29.817Z,4.88
2023-01-03T19:33:57.745Z,3.50
2023-01-03T19:36:26.970Z,3.50
2023-01-03T19:38:54.901Z,6.60
2023-01-03T19:41:22.952Z,5.97
2023-01-03T19:43:50.992Z,3.85
2023-01-03T19:46:19.025Z,4.63
2023-01-03T19:48:47.184Z,5.80
2023-01-03T19:51:15.113Z,4.57
2023-01-03T19:53:44.439Z,2.95
2023-01-03T19:56:20.451Z,4.47
2023-01-03T19:58:48.509Z,4.75
2023-01-03T20:01:17.180Z,5.13
2023-01-03T20:03:45.602Z,4.82
2023-01-03T20:06:14.807Z,4.95
2023-01-03T20:08:44.204Z,3.45
2023-01-03T20:11:16.249Z,2.85
2023-01-03T20:13:44.998Z,6.22
2023-01-03T20:16:13.177Z,14.55
2023-01-03T20:18:41.856Z,11.32
2023-01-03T20:21:21.711Z,12.90
2023-01-03T20:23:53.433Z,8.35
2023-01-03T20:26:23.494Z,20.52
2023-01-03T20:28:51.668Z,15.10
2023-01-03T20:31:20.857Z,17.42
2023-01-03T20:33:49.182Z,10.73
2023-01-03T20:36:23.178Z,18.73
2023-01-03T20:38:54.203Z,15.57
2023-01-03T20:41:35.765Z,8.80
2023-01-03T20:44:03.965Z,9.05
2023-01-03T20:46:32.003Z,16.02
2023-01-03T20:49:01.674Z,8.40
2023-01-03T20:51:29.950Z,8.80
2023-01-03T20:53:59.294Z,6.53
2023-01-03T20:56:27.261Z,10.07
2023-01-03T20:58:55.235Z,9.25
2023-01-03T21:01:23.278Z,9.05
2023-01-03T21:03:51.287Z,12.10
2023-01-03T21:06:20.064Z,7.47
2023-01-03T21:08:58.074Z,9.40
2023-01-03T21:11:28.635Z,9.80
2023-01-03T21:13:57.151Z,11.82
2023-01-03T21:16:34.965Z,8.85
2023-01-03T21:19:06.710Z,10.05
2023-01-03T21:21:34.759Z,7.30
2023-01-03T21:24:02.738Z,12.23
2023-01-03T21:26:32.051Z,12.35
2023-01-03T21:29:00.120Z,11.80
2023-01-03T21:31:28.180Z,9.85
2023-01-03T21:33:56.138Z,10.13
2023-01-03T21:36:25.382Z,5.32
2023-01-03T21:38:53.315Z,8.23
2023-01-03T21:41:22.498Z,8.00
2023-01-03T21:43:54.394Z,7.35
2023-01-03T21:46:22.620Z,9.90
2023-01-03T21:48:50.500Z,8.05
2023-01-03T21:51:27.435Z,5.93
2023-01-03T21:54:01.293Z,7.20
2023-01-03T21:56:29.216Z,9.85
2023-01-03T21:58:58.434Z,5.40
2023-01-03T22:01:26.441Z,7.00
2023-01-03T22:04:11.734Z,6.47
2023-01-03T22:06:39.944Z,6.68
2023-01-03T22:09:27.847Z,17.48
2023-01-03T22:11:55.735Z,5.53
2023-01-03T22:14:24.908Z,7.97
2023-01-03T22:16:52.889Z,9.10
2023-01-03T22:19:20.825Z,6.75
2023-01-03T22:21:48.682Z,7.22
2023-01-03T22:24:16.725Z,5.90
2023-01-03T22:26:44.677Z,4.85
2023-01-03T22:29:12.523Z,8.00
2023-01-03T22:31:41.810Z,5.88
2023-01-03T22:34:09.739Z,6.53
2023-01-03T22:36:37.647Z,14.43
2023-01-03T22:39:05.541Z,6.57
2023-01-03T22:41:33.400Z,5.38
2023-01-03T22:44:01.321Z,8.57
2023-01-03T22:46:29.313Z,7.38
2023-01-03T22:48:58.585Z,6.57
2023-01-03T22:51:26.491Z,4.07
2023-01-03T22:53:54.462Z,5.30
2023-01-03T22:56:22.320Z,3.45
2023-01-03T22:58:50.265Z,7.28
2023-01-03T23:01:19.089Z,6.88
2023-01-03T23:03:47.528Z,4.97
2023-01-03T23:06:19.015Z,3.38
2023-01-03T23:08:51.196Z,4.28
2023-01-03T23:11:37.826Z,7.40
2023-01-03T23:14:07.581Z,7.10
2023-01-03T23:16:35.503Z,4.53
2023-01-03T23:19:03.746Z,5.32
2023-01-03T23:21:33.284Z,10.23
2023-01-03T23:24:01.267Z,4.25
2023-01-03T23:26:29.184Z,5.63
2023-01-03T23:28:57.187Z,4.47
2023-01-03T23:31:26.396Z,5.53
2023-01-03T23:33:55.040Z,7.28
2023-01-03T23:36:22.906Z,9.90
2023-01-03T23:38:52.134Z,4.47
2023-01-03T23:41:20.256Z,7.38
2023-01-03T23:43:48.154Z,7.18
2023-01-03T23:46:17.143Z,8.35
2023-01-03T23:48:45.135Z,4.97
2023-01-03T23:51:13.044Z,4.40
2023-01-03T23:53:41.651Z,4.78
2023-01-03T23:56:12.333Z,5.00
2023-01-03T23:58:40.271Z,7.75
